createdAt,value
2022-12-11T00:01:18.040Z,157.68
2022-12-11T00:03:46.871Z,155.65
2022-12-11T00:06:15.977Z,160.18
2022-12-11T00:08:43.173Z,164.27
2022-12-11T00:11:12.513Z,157.40
2022-12-11T00:13:39.424Z,161.88
2022-12-11T00:16:06.537Z,157.80
2022-12-11T00:18:33.524Z,154.15
2022-12-11T00:21:13.009Z,154.18
2022-12-11T00:23:39.935Z,146.20
2022-12-11T00:26:09.579Z,136.38
2022-12-11T00:28:36.842Z,137.32
2022-12-11T00:31:08.174Z,145.57
2022-12-11T00:33:35.303Z,142.70
2022-12-11T00:36:02.188Z,153.07
2022-12-11T00:38:29.298Z,148.60
2022-12-11T00:40:59.940Z,152.48
2022-12-11T00:43:26.998Z,121.93
2022-12-11T00:45:53.970Z,137.23
2022-12-11T00:48:21.028Z,151.30
2022-12-11T00:50:48.151Z,151.77
2022-12-11T00:53:15.541Z,164.55
2022-12-11T00:55:43.561Z,164.23
2022-12-11T00:58:11.366Z,160.88
2022-12-11T01:00:39.256Z,157.10
2022-12-11T01:03:07.109Z,151.15
2022-12-11T01:05:46.495Z,162.70
2022-12-11T01:08:18.033Z,159.68
2022-12-11T01:10:47.004Z,153.57
2022-12-11T01:13:14.208Z,169.52
2022-12-11T01:15:43.750Z,171.10
2022-12-11T01:18:12.748Z,162.00
2022-12-11T01:20:41.250Z,172.93
2022-12-11T01:23:08.540Z,167.27
2022-12-11T01:25:38.264Z,155.27
2022-12-11T01:30:33.764Z,148.90
2022-12-11T01:33:01.326Z,138.68
2022-12-11T01:35:28.686Z,140.88
2022-12-11T01:37:55.988Z,141.55
2022-12-11T01:40:23.093Z,155.68
2022-12-11T01:42:51.418Z,167.25
2022-12-11T01:45:39.802Z,153.23
2022-12-11T01:48:10.389Z,167.57
2022-12-11T01:50:45.910Z,159.15
2022-12-11T01:53:17.875Z,155.07
2022-12-11T01:55:46.909Z,165.38
2022-12-11T01:58:14.270Z,166.23
2022-12-11T02:00:41.215Z,158.48
2022-12-11T02:03:08.653Z,150.75
2022-12-11T02:05:35.671Z,157.23
2022-12-11T02:08:03.460Z,156.93
2022-12-11T02:11:06.625Z,153.20
2022-12-11T02:13:39.399Z,148.88
2022-12-11T02:16:09.086Z,148.93
2022-12-11T02:18:44.762Z,149.50
2022-12-11T02:21:21.078Z,152.52
2022-12-11T02:24:05.444Z,141.73
2022-12-11T02:26:51.293Z,151.27
2022-12-11T02:29:21.355Z,152.38
2022-12-11T02:31:55.107Z,152.65
2022-12-11T02:34:29.187Z,151.30
2022-12-11T02:36:59.872Z,150.70
2022-12-11T02:39:27.995Z,118.17
2022-12-11T02:41:55.986Z,145.20
2022-12-11T02:44:26.229Z,137.40
2022-12-11T02:46:54.260Z,151.45
2022-12-11T02:49:22.238Z,148.68
2022-12-11T02:51:49.490Z,151.90
2022-12-11T02:54:20.906Z,145.48
2022-12-11T02:56:55.065Z,151.95
2022-12-11T02:59:44.408Z,145.48
2022-12-11T03:02:13.426Z,149.77
2022-12-11T03:04:41.222Z,137.77
2022-12-11T03:07:15.953Z,144.35
2022-12-11T03:09:44.820Z,144.48
2022-12-11T03:12:16.741Z,142.40
2022-12-11T03:14:44.042Z,138.95
2022-12-11T03:17:20.373Z,137.55
2022-12-11T03:20:17.913Z,131.25
2022-12-11T03:22:56.067Z,129.00
2022-12-11T03:25:26.833Z,104.65
2022-12-11T03:28:09.649Z,106.00
2022-12-11T03:30:37.428Z,68.18
2022-12-11T03:33:12.170Z,132.35
2022-12-11T03:35:45.327Z,131.15
2022-12-11T03:38:23.208Z,120.30
2022-12-11T03:40:53.371Z,101.05
2022-12-11T03:43:21.991Z,97.60
2022-12-11T03:45:50.107Z,78.70
2022-12-11T03:48:18.112Z,92.82
2022-12-11T03:50:46.615Z,88.28
2022-12-11T03:53:13.719Z,102.35
2022-12-11T03:55:42.450Z,93.80
2022-12-11T03:58:09.423Z,88.47
2022-12-11T04:00:36.615Z,90.15
2022-12-11T04:03:17.931Z,89.88
2022-12-11T04:05:47.587Z,81.47
2022-12-11T04:08:15.177Z,85.50
2022-12-11T04:10:42.494Z,87.65
2022-12-11T04:13:10.364Z,88.43
2022-12-11T04:15:38.111Z,86.05
2022-12-11T04:18:23.994Z,83.15
2022-12-11T04:21:12.514Z,87.43
2022-12-11T04:23:58.170Z,90.90
2022-12-11T04:26:25.833Z,95.40
2022-12-11T04:28:52.716Z,95.32
2022-12-11T04:31:22.409Z,90.32
2022-12-11T04:33:49.536Z,98.38
2022-12-11T04:36:16.898Z,83.88
2022-12-11T04:38:43.784Z,98.97
2022-12-11T04:41:13.693Z,96.45
2022-12-11T04:43:40.912Z,106.20
2022-12-11T04:46:14.992Z,107.75
2022-12-11T04:48:42.631Z,104.82
2022-12-11T04:51:10.447Z,108.07
2022-12-11T04:53:38.159Z,112.30
2022-12-11T04:56:07.371Z,108.88
2022-12-11T04:58:36.022Z,99.75
2022-12-11T05:01:22.775Z,102.88
2022-12-11T05:03:50.468Z,99.30
2022-12-11T05:06:17.533Z,111.68
2022-12-11T05:08:45.465Z,106.78
2022-12-11T05:11:15.042Z,113.72
2022-12-11T05:13:42.625Z,102.90
2022-12-11T05:16:11.631Z,99.32
2022-12-11T05:18:38.862Z,99.22
2022-12-11T05:21:08.047Z,97.07
2022-12-11T05:23:35.485Z,88.55
2022-12-11T05:26:15.230Z,93.97
2022-12-11T05:28:42.379Z,89.35
2022-12-11T05:31:14.105Z,100.22
2022-12-11T05:33:41.899Z,98.90
2022-12-11T05:36:09.580Z,94.65
2022-12-11T05:38:36.452Z,98.78
2022-12-11T05:41:06.284Z,103.20
2022-12-11T05:43:34.803Z,85.85
2022-12-11T05:46:10.549Z,78.90
2022-12-11T05:48:38.502Z,82.68
2022-12-11T05:51:06.799Z,74.85
2022-12-11T05:53:33.851Z,69.40
2022-12-11T05:56:08.649Z,68.88
2022-12-11T05:58:35.992Z,73.25
2022-12-11T06:01:07.041Z,73.18
2022-12-11T06:03:34.159Z,70.05
2022-12-11T06:06:05.349Z,54.45
2022-12-11T06:08:33.057Z,54.70
2022-12-11T06:11:00.217Z,51.90
2022-12-11T06:13:27.339Z,50.08
2022-12-11T06:15:54.430Z,40.75
2022-12-11T06:18:21.703Z,35.28
2022-12-11T06:20:48.840Z,59.92
2022-12-11T06:23:15.795Z,60.63
2022-12-11T06:25:42.762Z,55.10
2022-12-11T06:28:09.785Z,52.80
2022-12-11T06:30:38.594Z,34.28
2022-12-11T06:33:06.968Z,31.92
2022-12-11T06:35:38.725Z,28.08
2022-12-11T06:38:09.151Z,26.35
2022-12-11T06:40:36.243Z,24.35
2022-12-11T06:43:04.095Z,22.83
2022-12-11T06:45:31.252Z,22.90
2022-12-11T06:47:59.180Z,15.48
2022-12-11T06:50:26.488Z,16.38
2022-12-11T06:52:53.475Z,15.98
2022-12-11T06:55:20.504Z,15.68
2022-12-11T06:57:47.447Z,11.98
2022-12-11T07:00:15.173Z,10.93
2022-12-11T07:02:42.175Z,10.07
2022-12-11T07:05:09.729Z,10.70
2022-12-11T07:07:36.901Z,9.60
2022-12-11T07:10:08.227Z,10.23
2022-12-11T07:15:02.981Z,8.27
2022-12-11T07:17:30.424Z,8.48
2022-12-11T07:19:57.677Z,8.27
2022-12-11T07:22:24.761Z,8.40
2022-12-11T07:24:51.712Z,8.00
2022-12-11T07:27:19.024Z,8.70
2022-12-11T07:29:46.247Z,8.48
2022-12-11T07:32:13.382Z,8.10
2022-12-11T07:34:40.691Z,8.10
2022-12-11T07:37:08.060Z,8.60
2022-12-11T07:39:35.220Z,8.55
2022-12-11T07:42:02.412Z,8.82
2022-12-11T07:44:30.021Z,8.93
2022-12-11T07:46:58.056Z,8.90
2022-12-11T07:49:24.980Z,12.65
2022-12-11T07:51:52.079Z,10.52
2022-12-11T07:54:19.083Z,10.80
2022-12-11T07:56:53.181Z,13.00
2022-12-11T07:59:22.666Z,8.93
2022-12-11T08:01:52.409Z,9.18
2022-12-11T08:04:20.321Z,8.63
2022-12-11T08:06:49.379Z,7.78
2022-12-11T08:09:21.112Z,7.45
2022-12-11T08:11:54.072Z,6.72
2022-12-11T08:14:22.508Z,7.32
2022-12-11T08:16:50.738Z,7.53
2022-12-11T08:19:18.289Z,6.43
2022-12-11T08:21:45.491Z,6.47
2022-12-11T08:24:12.590Z,6.70
2022-12-11T08:26:40.813Z,5.40
2022-12-11T08:29:08.422Z,5.07
2022-12-11T08:31:35.577Z,5.70
2022-12-11T08:34:02.782Z,5.78
2022-12-11T08:36:29.858Z,5.20
2022-12-11T08:38:57.310Z,4.88
2022-12-11T08:41:29.511Z,3.67
2022-12-11T08:43:58.182Z,4.90
2022-12-11T08:46:36.737Z,4.68
2022-12-11T08:49:16.991Z,6.35
2022-12-11T08:51:44.662Z,5.55
2022-12-11T09:01:55.723Z,5.50
2022-12-11T09:04:23.255Z,5.53
2022-12-11T09:06:50.372Z,4.57
2022-12-11T09:09:17.361Z,3.28
2022-12-11T09:11:44.336Z,4.63
2022-12-11T09:14:11.293Z,5.97
2022-12-11T09:16:40.820Z,9.23
2022-12-11T09:19:12.653Z,6.68
2022-12-11T09:21:39.903Z,4.90
2022-12-11T09:24:07.193Z,6.90
2022-12-11T09:26:34.203Z,8.75
2022-12-11T09:29:03.814Z,7.32
2022-12-11T09:31:33.263Z,6.25
2022-12-11T09:34:05.989Z,7.13
2022-12-11T09:36:33.354Z,8.02
2022-12-11T09:39:02.128Z,7.32
2022-12-11T09:41:50.735Z,8.40
2022-12-11T09:44:34.935Z,8.23
2022-12-11T09:47:02.058Z,8.48
2022-12-11T09:49:39.358Z,10.23
2022-12-11T09:52:19.022Z,10.65
2022-12-11T09:55:00.943Z,11.45
2022-12-11T10:00:08.943Z,9.10
2022-12-11T10:02:58.398Z,11.38
2022-12-11T10:06:10.291Z,8.63
2022-12-11T10:08:45.538Z,12.93
2022-12-11T10:11:28.322Z,10.50
2022-12-11T10:14:20.434Z,9.73
2022-12-11T10:19:23.306Z,8.45
2022-12-11T10:21:51.553Z,8.30
2022-12-11T10:25:10.015Z,10.10
2022-12-11T10:27:31.868Z,9.63
2022-12-11T10:30:20.574Z,8.60
2022-12-11T10:33:04.375Z,8.57
2022-12-11T10:35:51.712Z,8.95
2022-12-11T10:38:27.600Z,9.70
2022-12-11T10:41:21.354Z,10.02
2022-12-11T10:43:51.864Z,8.13
2022-12-11T10:46:24.819Z,7.60
2022-12-11T10:48:59.449Z,6.25
2022-12-11T10:51:32.428Z,5.72
2022-12-11T10:54:07.324Z,7.13
2022-12-11T10:56:36.281Z,6.15
2022-12-11T10:59:03.776Z,6.90
2022-12-11T11:01:32.397Z,7.05
2022-12-11T11:04:23.114Z,7.75
2022-12-11T11:07:02.027Z,6.28
2022-12-11T11:09:35.665Z,6.45
2022-12-11T11:12:07.798Z,9.13
2022-12-11T11:14:35.151Z,6.50
2022-12-11T11:17:02.182Z,5.53
2022-12-11T11:19:34.160Z,6.78
2022-12-11T11:22:07.059Z,6.63
2022-12-11T11:24:41.180Z,5.20
2022-12-11T11:27:14.320Z,5.85
2022-12-11T11:29:41.841Z,5.75
2022-12-11T11:32:24.043Z,5.35
2022-12-11T11:34:51.180Z,4.45
2022-12-11T11:37:36.403Z,4.55
2022-12-11T11:40:15.205Z,6.15
2022-12-11T11:43:38.200Z,4.38
2022-12-11T11:46:22.374Z,4.03
2022-12-11T11:49:12.580Z,3.40
2022-12-11T11:52:04.022Z,4.18
2022-12-11T11:54:36.933Z,3.47
2022-12-11T11:57:29.862Z,3.95
2022-12-11T12:00:09.728Z,3.50
2022-12-11T12:02:41.051Z,7.10
2022-12-11T12:05:13.383Z,3.40
2022-12-11T12:08:00.172Z,2.60
2022-12-11T12:10:48.397Z,3.35
2022-12-11T12:14:17.603Z,2.97
2022-12-11T12:17:08.011Z,2.85
2022-12-11T12:19:59.875Z,4.13
2022-12-11T12:22:51.604Z,3.95
2022-12-11T12:25:26.215Z,3.00
2022-12-11T12:27:58.611Z,3.25
2022-12-11T12:30:27.315Z,3.03
2022-12-11T12:33:07.710Z,2.88
2022-12-11T12:35:54.668Z,3.20
2022-12-11T12:38:38.175Z,3.15
2022-12-11T12:41:25.260Z,2.47
2022-12-11T12:44:00.820Z,2.53
2022-12-11T12:46:34.314Z,5.35
2022-12-11T12:49:01.884Z,5.07
2022-12-11T12:51:29.172Z,3.28
2022-12-11T12:53:59.776Z,4.60
2022-12-11T12:56:28.285Z,2.90
2022-12-11T12:58:55.316Z,3.22
2022-12-11T13:01:24.689Z,4.18
2022-12-11T13:04:01.751Z,3.42
2022-12-11T13:06:36.213Z,8.90
2022-12-11T13:09:23.847Z,4.43
2022-12-11T13:11:57.900Z,5.88
2022-12-11T13:14:28.598Z,3.60
2022-12-11T13:17:20.537Z,2.75
2022-12-11T13:19:49.661Z,3.83
2022-12-11T13:22:16.575Z,3.75
2022-12-11T13:24:50.575Z,2.30
2022-12-11T13:27:38.454Z,3.78
2022-12-11T13:30:26.238Z,5.22
2022-12-11T13:33:07.034Z,3.03
2022-12-11T13:35:35.460Z,8.32
2022-12-11T13:38:13.263Z,4.88
2022-12-11T13:40:43.226Z,3.53
2022-12-11T13:43:22.632Z,3.97
2022-12-11T13:45:55.352Z,3.42
2022-12-11T13:48:34.006Z,2.70
2022-12-11T13:51:02.101Z,3.20
2022-12-11T13:53:29.619Z,4.55
2022-12-11T13:55:57.995Z,6.80
2022-12-11T13:58:25.108Z,4.53
2022-12-11T14:01:05.039Z,4.68
2022-12-11T14:03:32.536Z,5.90
2022-12-11T14:06:00.569Z,5.25
2022-12-11T14:08:43.246Z,3.65
2022-12-11T14:11:20.944Z,2.85
2022-12-11T14:13:48.094Z,4.65
2022-12-11T14:16:21.199Z,9.02
2022-12-11T14:18:50.435Z,4.90
2022-12-11T14:21:23.050Z,4.88
2022-12-11T14:23:55.787Z,3.47
2022-12-11T14:26:31.741Z,2.85
2022-12-11T14:28:58.786Z,3.60
2022-12-11T14:31:37.363Z,3.65
2022-12-11T14:34:07.663Z,4.88
2022-12-11T14:36:35.610Z,4.30
2022-12-11T14:39:07.238Z,4.63
2022-12-11T14:41:45.179Z,5.68
2022-12-11T14:44:15.932Z,4.40
2022-12-11T14:46:55.063Z,6.40
2022-12-11T14:49:47.567Z,5.28
2022-12-11T14:52:20.730Z,7.57
2022-12-11T14:54:54.412Z,5.90
2022-12-11T14:57:28.124Z,8.85
2022-12-11T14:59:55.530Z,8.88
2022-12-11T15:02:35.070Z,7.97
2022-12-11T15:05:22.337Z,6.93
2022-12-11T15:08:00.952Z,7.30
2022-12-11T15:10:57.316Z,8.23
2022-12-11T15:13:24.731Z,6.72
2022-12-11T15:15:52.225Z,6.40
2022-12-11T15:18:24.501Z,4.78
2022-12-11T15:20:53.670Z,5.50
2022-12-11T15:23:20.819Z,6.50
2022-12-11T15:25:59.085Z,4.85
2022-12-11T15:28:37.473Z,4.78
2022-12-11T15:31:07.707Z,5.13
2022-12-11T15:33:46.130Z,5.10
2022-12-11T15:36:31.493Z,6.20
2022-12-11T15:38:58.763Z,5.57
2022-12-11T15:41:25.978Z,5.97
2022-12-11T15:43:58.556Z,5.82
2022-12-11T15:46:26.174Z,5.43
2022-12-11T15:48:53.378Z,7.47
2022-12-11T15:51:20.459Z,5.22
2022-12-11T15:53:47.652Z,6.00
2022-12-11T15:56:18.160Z,4.47
2022-12-11T15:58:47.339Z,6.97
2022-12-11T16:01:14.692Z,5.88
2022-12-11T16:03:42.162Z,3.92
2022-12-11T16:06:12.731Z,4.25
2022-12-11T16:08:39.803Z,3.72
2022-12-11T16:11:07.013Z,4.20
2022-12-11T16:13:34.219Z,4.40
2022-12-11T16:16:01.728Z,4.88
2022-12-11T16:18:28.964Z,3.78
2022-12-11T16:20:56.336Z,4.90
2022-12-11T16:23:25.471Z,3.35
2022-12-11T16:25:54.189Z,4.55
2022-12-11T16:28:21.353Z,3.60
2022-12-11T16:30:48.826Z,4.57
2022-12-11T16:33:15.995Z,3.33
2022-12-11T16:35:43.220Z,3.88
2022-12-11T16:38:11.143Z,2.88
2022-12-11T16:40:38.614Z,3.38
2022-12-11T16:43:06.094Z,3.45
2022-12-11T16:45:34.015Z,3.50
2022-12-11T16:48:03.874Z,4.32
2022-12-11T16:50:32.297Z,4.57
2022-12-11T16:53:00.273Z,4.40
2022-12-11T16:55:27.256Z,5.82
2022-12-11T16:57:55.336Z,4.47
2022-12-11T17:00:22.698Z,4.78
2022-12-11T17:02:50.067Z,5.93
2022-12-11T17:05:17.685Z,4.60
2022-12-11T17:07:45.254Z,4.50
2022-12-11T17:10:12.348Z,3.70
2022-12-11T17:12:39.560Z,5.70
2022-12-11T17:15:07.399Z,4.70
2022-12-11T17:17:34.706Z,6.38
2022-12-11T17:20:02.157Z,5.95
2022-12-11T17:22:29.132Z,5.03
2022-12-11T17:24:56.260Z,7.38
2022-12-11T17:27:23.295Z,5.97
2022-12-11T17:29:51.803Z,7.53
2022-12-11T17:32:20.098Z,7.70
2022-12-11T17:34:49.707Z,5.50
2022-12-11T17:37:18.011Z,5.70
2022-12-11T17:39:45.289Z,6.30
2022-12-11T17:42:12.298Z,7.95
2022-12-11T17:44:39.394Z,9.60
2022-12-11T17:47:11.107Z,7.13
2022-12-11T17:49:40.607Z,5.60
2022-12-11T17:52:08.023Z,7.38
2022-12-11T17:54:35.272Z,6.80
2022-12-11T17:57:02.670Z,10.13
2022-12-11T17:59:29.565Z,8.50
2022-12-11T18:01:56.564Z,6.57
2022-12-11T18:04:24.131Z,6.35
2022-12-11T18:06:51.643Z,5.82
2022-12-11T18:09:19.141Z,5.30
2022-12-11T18:11:46.410Z,8.18
2022-12-11T18:14:17.075Z,4.72
2022-12-11T18:16:45.015Z,4.38
2022-12-11T18:19:12.173Z,5.18
2022-12-11T18:21:42.930Z,3.38
2022-12-11T18:24:10.701Z,4.78
2022-12-11T18:26:38.208Z,3.35
2022-12-11T18:29:05.550Z,5.35
2022-12-11T18:31:35.360Z,5.60
2022-12-11T18:34:06.496Z,4.22
2022-12-11T18:36:35.000Z,4.90
2022-12-11T18:39:01.925Z,4.38
2022-12-11T18:41:32.243Z,6.40
2022-12-11T18:44:09.288Z,5.65
2022-12-11T18:46:37.177Z,5.70
2022-12-11T18:49:04.368Z,6.35
2022-12-11T18:51:31.435Z,6.05
2022-12-11T18:53:58.803Z,5.18
2022-12-11T18:56:25.752Z,5.40
2022-12-11T18:58:52.849Z,7.20
2022-12-11T19:01:22.850Z,5.60
2022-12-11T19:03:51.293Z,5.28
2022-12-11T19:06:20.841Z,7.20
2022-12-11T19:08:48.271Z,5.93
2022-12-11T19:11:20.624Z,4.95
2022-12-11T19:13:48.610Z,5.82
2022-12-11T19:16:24.390Z,4.07
2022-12-11T19:18:51.808Z,5.30
2022-12-11T19:21:19.599Z,6.00
2022-12-11T19:23:47.081Z,3.88
2022-12-11T19:26:17.490Z,5.53
2022-12-11T19:28:44.891Z,4.88
2022-12-11T19:31:13.921Z,4.68
2022-12-11T19:33:41.850Z,4.63
2022-12-11T19:36:13.775Z,3.83
2022-12-11T19:38:42.286Z,3.40
2022-12-11T19:41:21.753Z,6.07
2022-12-11T19:43:50.114Z,7.05
2022-12-11T19:46:18.041Z,4.10
2022-12-11T19:48:45.219Z,3.97
2022-12-11T19:51:18.410Z,4.60
2022-12-11T19:53:46.815Z,6.78
2022-12-11T19:56:14.892Z,3.92
2022-12-11T19:58:42.379Z,4.22
2022-12-11T20:01:10.271Z,6.18
2022-12-11T20:03:38.138Z,5.47
2022-12-11T20:06:08.228Z,5.53
2022-12-11T20:08:44.539Z,2.72
2022-12-11T20:11:17.594Z,4.60
2022-12-11T20:13:46.946Z,2.92
2022-12-11T20:16:14.705Z,2.90
2022-12-11T20:18:42.719Z,3.13
2022-12-11T20:21:13.110Z,3.10
2022-12-11T20:23:42.243Z,3.72
2022-12-11T20:26:22.514Z,2.75
2022-12-11T20:28:53.526Z,3.58
2022-12-11T20:31:26.114Z,3.83
2022-12-11T20:33:54.378Z,5.60
2022-12-11T20:36:23.260Z,4.00
2022-12-11T20:38:51.083Z,2.65
2022-12-11T20:41:21.421Z,3.40
2022-12-11T20:43:49.610Z,3.53
2022-12-11T20:46:18.183Z,5.80
2022-12-11T20:48:46.015Z,2.72
2022-12-11T20:51:20.869Z,3.35
2022-12-11T20:53:57.939Z,3.15
2022-12-11T20:56:29.610Z,4.70
2022-12-11T20:58:58.152Z,2.22
2022-12-11T21:01:28.010Z,3.22
2022-12-11T21:03:55.648Z,3.33
2022-12-11T21:06:31.909Z,4.60
2022-12-11T21:09:00.995Z,4.15
2022-12-11T21:11:29.321Z,3.42
2022-12-11T21:13:56.870Z,2.38
2022-12-11T21:16:24.631Z,3.50
2022-12-11T21:18:52.139Z,4.53
2022-12-11T21:21:20.005Z,4.78
2022-12-11T21:23:47.068Z,3.40
2022-12-11T21:26:14.399Z,2.95
2022-12-11T21:28:41.339Z,4.05
2022-12-11T21:31:11.865Z,2.53
2022-12-11T21:33:38.986Z,2.42
2022-12-11T21:36:07.088Z,2.63
2022-12-11T21:38:34.177Z,4.25
2022-12-11T21:41:09.475Z,3.40
2022-12-11T21:43:40.024Z,2.17
2022-12-11T21:46:16.970Z,3.63
2022-12-11T21:48:44.535Z,3.83
2022-12-11T21:51:24.330Z,3.22
2022-12-11T21:53:52.101Z,2.70
2022-12-11T21:56:22.740Z,6.70
2022-12-11T21:58:51.989Z,2.75
2022-12-11T22:01:23.640Z,2.42
2022-12-11T22:03:52.469Z,3.65
2022-12-11T22:06:19.631Z,3.22
2022-12-11T22:08:49.230Z,2.70
2022-12-11T22:11:21.979Z,3.90
2022-12-11T22:13:49.054Z,4.47
2022-12-11T22:16:16.071Z,3.00
2022-12-11T22:18:43.153Z,3.97
2022-12-11T22:21:10.134Z,5.47
2022-12-11T22:23:41.101Z,2.63
2022-12-11T22:26:09.130Z,5.38
2022-12-11T22:28:36.004Z,3.75
2022-12-11T22:31:04.788Z,3.53
2022-12-11T22:33:31.747Z,3.55
2022-12-11T22:35:59.577Z,2.42
2022-12-11T22:38:26.810Z,3.03
2022-12-11T22:40:54.610Z,4.28
2022-12-11T22:43:21.820Z,4.03
2022-12-11T22:45:49.451Z,2.75
2022-12-11T22:48:16.530Z,2.83
2022-12-11T22:50:44.407Z,3.70
2022-12-11T22:53:11.761Z,6.20
2022-12-11T22:55:40.027Z,2.80
2022-12-11T22:58:07.719Z,3.03
2022-12-11T23:00:35.020Z,2.40
2022-12-11T23:03:02.530Z,4.03
2022-12-11T23:05:29.951Z,3.13
2022-12-11T23:07:57.150Z,2.47
2022-12-11T23:10:24.266Z,4.28
2022-12-11T23:12:51.252Z,3.20
2022-12-11T23:15:18.821Z,5.72
2022-12-11T23:17:45.760Z,3.17
2022-12-11T23:20:12.796Z,3.50
2022-12-11T23:22:39.953Z,7.82
2022-12-11T23:25:07.429Z,6.22
2022-12-11T23:27:34.414Z,3.63
2022-12-11T23:30:01.439Z,2.70
2022-12-11T23:32:28.386Z,5.30
2022-12-11T23:34:55.303Z,6.30
2022-12-11T23:37:22.194Z,5.47
2022-12-11T23:39:49.176Z,3.17
2022-12-11T23:42:16.135Z,3.80
2022-12-11T23:44:43.276Z,6.22
2022-12-11T23:47:10.207Z,4.35
2022-12-11T23:49:37.322Z,4.82
2022-12-11T23:52:04.500Z,5.40
2022-12-11T23:54:31.775Z,8.70
2022-12-11T23:56:58.703Z,7.00
2022-12-11T23:59:25.783Z,7.40
